Calimesa, CA (92320)

11:04 AM PDT on September 19, 2014 (GMT -0700)
Cherry Valley (NW) | Change Station
CLOSE
Current Station
Personal Weather Station
Location: Cherry Valley, CA
Elevation: 3057 ft
Nearby Weather Stations

Elev 3057 ft 33.99 °N, 116.99 °W | Updated 4 seconds ago

Partly Cloudy
Partly Cloudy
68.9 °F
Feels Like 68.9 °F
N
10.4
Wind Variable Wind from South
Gusts 10.4 mph

Today
High -- | Low -- °F
--% Chance of Precip.
Yesterday
High -- | Low -- °F
Precip. -- in
6:34 AM 6:48 PM
Waning Crescent, 18% visible
Pressure 29.93 in
Visibility 10.0 miles
Clouds Overcast 3200 ft
Dew Point 60 °F
Humidity 74%
Rainfall 0.00 in
Snow Depth 0 in , 1 in , 0 in
UV 2 out of 12
Pollen 6.90 out of 12
Ozone Good
Flu Activity Not available.
METAR KSBD 191747Z 00000KT 10SM OVC032 22/14 A2993

More Conditions Fewer Conditions

Pressure 29.93 in
Visibility 10.0 miles
Clouds Overcast 3200 ft
Dew Point 60 °F
Humidity 74%
Rainfall 0.00 in
Snow Depth 0 in , 1 in , 0 in
UV 2 out of 12
Pollen 6.90 out of 12
Ozone Good
Flu Activity Not available.
METAR KSBD 191747Z 00000KT 10SM OVC032 22/14 A2993

More Conditions Fewer Conditions

10-Day Weather Forecast

Almanac

Astronomy

Sep. 19, 2014 Rise Set
Actual Time 6:34 AM PDT 6:48 PM PDT
Civil Twilight 6:09 AM PDT 7:13 PM PDT
Nautical Twilight 5:39 AM PDT 7:43 PM PDT
Astronomical Twilight 5:10 AM PDT 8:12 PM PDT
Moon 2:32 AM PDT 4:12 PM PDT
Length of Visible Light 13h 04m
Length of Day
12h 14m
Tomorrow will be 2m 6s shorter.
Waning Crescent, 18% of the Moon is Illuminated
Today
Waning Crescent
Sep 24
New
Oct 1
First Quarter
Oct 8
Full
Oct 15
Last Quarter

Today's Extremes

State Highs State Lows

Community

WunderPhotos

Upload Photos

1,754,677 photos uploaded!

Nearby

Air Quality

  Air Quality AQ Index Pollutant
Yesterday Good
OZONE
Current Good
OZONE
Friday Good
PM10
Friday Moderate
OZONE
Friday Good
CO
Friday Good
NO2

Snow Depth

Station Depth Elevation
Leavitt Meadows 0 in 7200 ft
Crowder Flat 0 in 5100 ft
Adin Mountain 1 in 6200 ft
Blue Lakes 0 in 8000 ft
Sonora Pass 0 in 8800 ft

Earthquake Activity

City Distance Mag. Time & Date
Aguanga, California 39 miles 2.5 1:38 AM PDT
2014-09-19
Minimum magnitude displayed is 2.5.

Coastal Water Temperatures

Place Temperature
No Stations Reporting

Nearby Weather Stations